CheckWX is a tool to help pilots better visualize weather data.  It is not intended as a substitute for an official pre-flight weather briefing.

20:31:23 UTC

KOSH METAR
Wittman Regional Airport
Oshkosh, Wisconsin, USA
Current

38 mins ago

KOSH 181953Z 00000KT 9SM CLR M05/M12 A3039 RMK AO2 SNB45E50 SLP314 P0000 T10501122 $
Observed
Feb-18 @ 19:53 UTC
Visibility
9 SM
Flight Rules
VFR
Cloud Levels
  • Clear skies
Temperature
-5°C / 23°F
Dewpoint
-12°C / 10°F
Humidity
58%
Altimeter
30.39" Hg
Pressure
1031.4 hPa
Current Rain
0.01"
Previous

2 hours ago

KOSH 181853Z 00000KT 10SM CLR M06/M12 A3039 RMK AO2 SLP311 T10561122 $
Observed
Feb-18 @ 18:53 UTC
Visibility
10 SM
Flight Rules
VFR
Cloud Levels
  • Clear skies
Temperature
-6°C / 21°F
Dewpoint
-12°C / 10°F
Humidity
63%
Altimeter
30.39" Hg
Pressure
1031.1 hPa
Previous

3 hours ago

KOSH 181753Z 35006KT 10SM CLR M06/M13 A3037 RMK AO2 SLP308 T10611128 11061 21117 51023 $
Observed
Feb-18 @ 17:53 UTC
Wind
  • 350° at 6 KTS
Visibility
10 SM
Flight Rules
VFR
Cloud Levels
  • Clear skies
Temperature
-6°C / 21°F
Dewpoint
-13°C / 9°F
Humidity
58%
Altimeter
30.37" Hg
Pressure
1030.8 hPa